Time,TemperatureF,DewpointF,PressureIn,WindDirection,WindDirectionDegrees,WindSpeedMPH,WindSpeedGustMPH,Humidity,HourlyPrecipIn,Conditions,Clouds,dailyrainin,SoftwareType,DateUTC
2013-02-06 00:01:00,-999.0,-99.9,29.96,North,-999,-999.0,-999.0,-999,-99.99,,,0.00,weatherlink.com 1.10,2013-02-06 05:01:00,
2013-02-06 00:16:00,-999.0,-99.9,29.97,North,-999,-999.0,-999.0,-999,-99.99,,,0.00,weatherlink.com 1.10,2013-02-06 05:16:00,
2013-02-06 00:31:00,-999.0,-99.9,29.98,North,-999,-999.0,-999.0,-999,-99.99,,,0.00,weatherlink.com 1.10,2013-02-06 05:31:00,
2013-02-06 00:46:00,-999.0,-99.9,29.99,North,-999,-999.0,-999.0,-999,-99.99,,,0.00,weatherlink.com 1.10,2013-02-06 05:46:00,
2013-02-06 01:01:00,-999.0,-99.9,30.00,North,-999,-999.0,-999.0,-999,-99.99,,,0.00,weatherlink.com 1.10,2013-02-06 06:01:00,
2013-02-06 01:16:00,-999.0,-99.9,30.01,North,-999,-999.0,-999.0,-999,-99.99,,,0.00,weatherlink.com 1.10,2013-02-06 06:16:00,
2013-02-06 01:31:00,-999.0,-99.9,30.01,North,-999,-999.0,-999.0,-999,-99.99,,,0.00,weatherlink.com 1.10,2013-02-06 06:31:00,
2013-02-06 01:46:00,-999.0,-99.9,30.01,North,-999,-999.0,-999.0,-999,-99.99,,,0.00,weatherlink.com 1.10,2013-02-06 06:46:00,
2013-02-06 02:01:00,-999.0,-99.9,30.03,North,-999,-999.0,-999.0,-999,-99.99,,,0.00,weatherlink.com 1.10,2013-02-06 07:01:00,
2013-02-06 02:16:00,-999.0,-99.9,30.04,North,-999,-999.0,-999.0,-999,-99.99,,,0.00,weatherlink.com 1.10,2013-02-06 07:16:00,
2013-02-06 02:31:00,-999.0,-99.9,30.04,North,-999,-999.0,-999.0,-999,-99.99,,,0.00,weatherlink.com 1.10,2013-02-06 07:31:00,
2013-02-06 02:47:00,-999.0,-99.9,30.05,North,-999,-999.0,-999.0,-999,-99.99,,,0.00,weatherlink.com 1.10,2013-02-06 07:47:00,
2013-02-06 03:02:00,-999.0,-99.9,30.06,North,-999,-999.0,-999.0,-999,-99.99,,,0.00,weatherlink.com 1.10,2013-02-06 08:02:00,
2013-02-06 03:17:00,-999.0,-99.9,30.06,North,-999,-999.0,-999.0,-999,-99.99,,,0.00,weatherlink.com 1.10,2013-02-06 08:17:00,
2013-02-06 03:32:00,-999.0,-99.9,30.06,North,-999,-999.0,-999.0,-999,-99.99,,,0.00,weatherlink.com 1.10,2013-02-06 08:32:00,
2013-02-06 03:47:00,-999.0,-99.9,30.07,North,-999,-999.0,-999.0,-999,-99.99,,,0.00,weatherlink.com 1.10,2013-02-06 08:47:00,
2013-02-06 04:02:00,-999.0,-99.9,30.07,North,-999,-999.0,-999.0,-999,-99.99,,,0.00,weatherlink.com 1.10,2013-02-06 09:02:00,
2013-02-06 04:17:00,-999.0,-99.9,30.07,North,-999,-999.0,-999.0,-999,-99.99,,,0.00,weatherlink.com 1.10,2013-02-06 09:17:00,
2013-02-06 04:32:00,-999.0,-99.9,30.09,North,-999,-999.0,-999.0,-999,-99.99,,,0.00,weatherlink.com 1.10,2013-02-06 09:32:00,
2013-02-06 04:47:00,-999.0,-99.9,30.09,North,-999,-999.0,-999.0,-999,-99.99,,,0.00,weatherlink.com 1.10,2013-02-06 09:47:00,
2013-02-06 05:02:00,-999.0,-99.9,30.10,North,-999,-999.0,-999.0,-999,-99.99,,,0.00,weatherlink.com 1.10,2013-02-06 10:02:00,
2013-02-06 05:17:00,-999.0,-99.9,30.11,North,-999,-999.0,-999.0,-999,-99.99,,,0.00,weatherlink.com 1.10,2013-02-06 10:17:00,
2013-02-06 05:32:00,-999.0,-99.9,30.11,North,-999,-999.0,-999.0,-999,-99.99,,,0.00,weatherlink.com 1.10,2013-02-06 10:32:00,
2013-02-06 05:47:00,-999.0,-99.9,30.11,North,-999,-999.0,-999.0,-999,-99.99,,,0.00,weatherlink.com 1.10,2013-02-06 10:47:00,
2013-02-06 06:02:00,-999.0,-99.9,30.12,North,-999,-999.0,-999.0,-999,-99.99,,,0.00,weatherlink.com 1.10,2013-02-06 11:02:00,
2013-02-06 06:18:00,-999.0,-99.9,30.12,North,-999,-999.0,-999.0,-999,-99.99,,,0.00,weatherlink.com 1.10,2013-02-06 11:18:00,
2013-02-06 06:33:00,-999.0,-99.9,30.13,North,-999,-999.0,-999.0,-999,-99.99,,,0.00,weatherlink.com 1.10,2013-02-06 11:33:00,
2013-02-06 06:48:00,-999.0,-99.9,30.14,North,-999,-999.0,-999.0,-999,-99.99,,,0.00,weatherlink.com 1.10,2013-02-06 11:48:00,
2013-02-06 07:03:00,-999.0,-99.9,30.15,North,-999,-999.0,-999.0,-999,-99.99,,,0.00,weatherlink.com 1.10,2013-02-06 12:03:00,
2013-02-06 07:18:00,-999.0,-99.9,30.16,North,-999,-999.0,-999.0,-999,-99.99,,,0.00,weatherlink.com 1.10,2013-02-06 12:18:00,
2013-02-06 07:33:00,-999.0,-99.9,30.16,North,-999,-999.0,-999.0,-999,-99.99,,,0.00,weatherlink.com 1.10,2013-02-06 12:33:00,
2013-02-06 07:48:00,-999.0,-99.9,30.17,North,-999,-999.0,-999.0,-999,-99.99,,,0.00,weatherlink.com 1.10,2013-02-06 12:48:00,
2013-02-06 08:03:00,-999.0,-99.9,30.17,North,-999,-999.0,-999.0,-999,-99.99,,,0.00,weatherlink.com 1.10,2013-02-06 13:03:00,
2013-02-06 08:18:00,-999.0,-99.9,30.18,North,-999,-999.0,-999.0,-999,-99.99,,,0.00,weatherlink.com 1.10,2013-02-06 13:18:00,
2013-02-06 08:33:00,-999.0,-99.9,30.18,North,-999,-999.0,-999.0,-999,-99.99,,,0.00,weatherlink.com 1.10,2013-02-06 13:33:00,
2013-02-06 08:48:00,-999.0,-99.9,30.18,North,-999,-999.0,-999.0,-999,-99.99,,,0.00,weatherlink.com 1.10,2013-02-06 13:48:00,
2013-02-06 09:03:00,11.9,9.0,30.19,WNW,303,0.0,-999.0,88,-99.99,,,0.00,weatherlink.com 1.10,2013-02-06 14:03:00,
2013-02-06 09:18:00,13.0,10.0,30.19,WNW,303,0.0,-999.0,87,-99.99,,,0.00,weatherlink.com 1.10,2013-02-06 14:18:00,
2013-02-06 09:33:00,12.6,9.0,30.20,WNW,303,2.0,-999.0,86,-99.99,,,0.00,weatherlink.com 1.10,2013-02-06 14:33:00,
2013-02-06 09:48:00,12.5,10.0,30.20,WNW,303,0.0,-999.0,88,-99.99,,,0.00,weatherlink.com 1.10,2013-02-06 14:48:00,
2013-02-06 10:03:00,12.8,10.0,30.21,WNW,303,1.0,-999.0,87,-99.99,,,0.00,weatherlink.com 1.10,2013-02-06 15:03:00,
2013-02-06 10:19:00,13.7,11.0,30.20,WNW,303,0.0,-999.0,87,-99.99,,,0.00,weatherlink.com 1.10,2013-02-06 15:19:00,
2013-02-06 10:34:00,12.3,9.0,30.21,WNW,295,3.0,-999.0,86,-99.99,,,0.00,weatherlink.com 1.10,2013-02-06 15:34:00,
2013-02-06 10:49:00,12.8,10.0,30.21,WNW,292,1.0,-999.0,87,-99.99,,,0.00,weatherlink.com 1.10,2013-02-06 15:49:00,
2013-02-06 11:04:00,13.4,10.0,30.22,WNW,291,4.0,-999.0,86,-99.99,,,0.00,weatherlink.com 1.10,2013-02-06 16:04:00,
2013-02-06 11:19:00,12.5,9.0,30.22,West,279,5.0,-999.0,86,-99.99,,,0.00,weatherlink.com 1.10,2013-02-06 16:19:00,
2013-02-06 11:34:00,13.5,10.0,30.23,West,278,4.0,-999.0,87,-99.99,,,0.00,weatherlink.com 1.10,2013-02-06 16:34:00,
2013-02-06 11:49:00,14.4,11.0,30.24,West,277,0.0,-999.0,86,-99.99,,,0.00,weatherlink.com 1.10,2013-02-06 16:49:00,
2013-02-06 12:04:00,16.7,13.0,30.23,West,276,1.0,-999.0,85,-99.99,,,0.00,weatherlink.com 1.10,2013-02-06 17:04:00,
2013-02-06 12:19:00,17.4,13.0,30.24,West,275,2.0,-999.0,83,-99.99,,,0.00,weatherlink.com 1.10,2013-02-06 17:19:00,
2013-02-06 12:34:00,17.2,13.0,30.23,West,275,1.0,-999.0,82,-99.99,,,0.00,weatherlink.com 1.10,2013-02-06 17:34:00,
2013-02-06 12:49:00,17.1,13.0,30.24,West,275,1.0,-999.0,82,-99.99,,,0.00,weatherlink.com 1.10,2013-02-06 17:49:00,
2013-02-06 13:04:00,16.8,13.0,30.24,West,275,1.0,-999.0,84,-99.99,,,0.00,weatherlink.com 1.10,2013-02-06 18:04:00,
2013-02-06 13:19:00,17.2,14.0,30.23,West,275,2.0,-999.0,86,-99.99,,,0.00,weatherlink.com 1.10,2013-02-06 18:19:00,
2013-02-06 13:34:00,17.5,14.0,30.23,West,275,1.0,-999.0,86,-99.99,,,0.00,weatherlink.com 1.10,2013-02-06 18:34:00,
2013-02-06 13:49:00,18.2,15.0,30.23,West,275,4.0,-999.0,87,-99.99,,,0.00,weatherlink.com 1.10,2013-02-06 18:49:00,
2013-02-06 14:04:00,20.0,16.0,30.23,West,275,2.0,-999.0,84,-99.99,,,0.00,weatherlink.com 1.10,2013-02-06 19:04:00,
2013-02-06 14:19:00,18.4,15.0,30.23,West,275,2.0,-999.0,85,-99.99,,,0.00,weatherlink.com 1.10,2013-02-06 19:19:00,
2013-02-06 14:34:00,18.4,15.0,30.22,West,275,2.0,-999.0,86,-99.99,,,0.00,weatherlink.com 1.10,2013-02-06 19:34:00,
2013-02-06 14:49:00,19.3,15.0,30.23,West,275,1.0,-999.0,84,-99.99,,,0.00,weatherlink.com 1.10,2013-02-06 19:49:00,
2013-02-06 15:04:00,21.0,16.0,30.22,West,275,0.0,-999.0,81,-99.99,,,0.00,weatherlink.com 1.10,2013-02-06 20:04:00,
2013-02-06 15:19:00,22.2,15.0,30.22,West,275,1.0,-999.0,74,-99.99,,,0.00,weatherlink.com 1.10,2013-02-06 20:19:00,
2013-02-06 15:34:00,21.3,15.0,30.21,West,275,0.0,-999.0,75,-99.99,,,0.00,weatherlink.com 1.10,2013-02-06 20:34:00,
2013-02-06 15:49:00,21.1,14.0,30.22,West,275,1.0,-999.0,75,-99.99,,,0.00,weatherlink.com 1.10,2013-02-06 20:49:00,
2013-02-06 16:04:00,20.7,14.0,30.22,West,275,3.0,-999.0,76,-99.99,,,0.01,weatherlink.com 1.10,2013-02-06 21:04:00,
2013-02-06 16:19:00,20.2,15.0,30.22,West,275,1.0,-999.0,79,-99.99,,,0.01,weatherlink.com 1.10,2013-02-06 21:19:00,
2013-02-06 16:34:00,19.7,15.0,30.23,West,275,0.0,-999.0,82,-99.99,,,0.01,weatherlink.com 1.10,2013-02-06 21:34:00,
2013-02-06 16:49:00,19.4,15.0,30.23,West,275,0.0,-999.0,82,-99.99,,,0.01,weatherlink.com 1.10,2013-02-06 21:49:00,
2013-02-06 17:04:00,19.3,15.0,30.23,West,275,0.0,-999.0,82,-99.99,,,0.01,weatherlink.com 1.10,2013-02-06 22:04:00,
2013-02-06 17:19:00,19.3,15.0,30.23,West,275,0.0,-999.0,82,-99.99,,,0.01,weatherlink.com 1.10,2013-02-06 22:19:00,
2013-02-06 17:34:00,-999.0,-99.9,30.23,North,-999,-999.0,-999.0,-999,-99.99,,,0.01,weatherlink.com 1.10,2013-02-06 22:34:00,
2013-02-06 17:49:00,-999.0,-99.9,30.24,North,-999,-999.0,-999.0,-999,-99.99,,,0.01,weatherlink.com 1.10,2013-02-06 22:49:00,
2013-02-06 18:04:00,-999.0,-99.9,30.24,North,-999,-999.0,-999.0,-999,-99.99,,,0.01,weatherlink.com 1.10,2013-02-06 23:04:00,
2013-02-06 18:19:00,-999.0,-99.9,30.24,North,-999,-999.0,-999.0,-999,-99.99,,,0.01,weatherlink.com 1.10,2013-02-06 23:19:00,
2013-02-06 18:35:00,-999.0,-99.9,30.24,North,-999,-999.0,-999.0,-999,-99.99,,,0.01,weatherlink.com 1.10,2013-02-06 23:35:00,
2013-02-06 18:50:00,-999.0,-99.9,30.24,North,-999,-999.0,-999.0,-999,-99.99,,,0.01,weatherlink.com 1.10,2013-02-06 23:50:00,
2013-02-06 19:05:00,-999.0,-99.9,30.24,North,-999,-999.0,-999.0,-999,-99.99,,,0.01,weatherlink.com 1.10,2013-02-07 00:05:00,
2013-02-06 19:20:00,-999.0,-99.9,30.24,North,-999,-999.0,-999.0,-999,-99.99,,,0.01,weatherlink.com 1.10,2013-02-07 00:20:00,
2013-02-06 19:35:00,-999.0,-99.9,30.23,North,-999,-999.0,-999.0,-999,-99.99,,,0.01,weatherlink.com 1.10,2013-02-07 00:35:00,
2013-02-06 19:50:00,-999.0,-99.9,30.23,North,-999,-999.0,-999.0,-999,-99.99,,,0.01,weatherlink.com 1.10,2013-02-07 00:50:00,
2013-02-06 20:05:00,-999.0,-99.9,30.23,North,-999,-999.0,-999.0,-999,-99.99,,,0.01,weatherlink.com 1.10,2013-02-07 01:05:00,
2013-02-06 20:20:00,-999.0,-99.9,30.24,North,-999,-999.0,-999.0,-999,-99.99,,,0.01,weatherlink.com 1.10,2013-02-07 01:20:00,
2013-02-06 20:35:00,-999.0,-99.9,30.24,North,-999,-999.0,-999.0,-999,-99.99,,,0.01,weatherlink.com 1.10,2013-02-07 01:35:00,
2013-02-06 20:50:00,-999.0,-99.9,30.24,North,-999,-999.0,-999.0,-999,-99.99,,,0.01,weatherlink.com 1.10,2013-02-07 01:50:00,
2013-02-06 21:05:00,-999.0,-99.9,30.24,North,-999,-999.0,-999.0,-999,-99.99,,,0.01,weatherlink.com 1.10,2013-02-07 02:05:00,
2013-02-06 21:20:00,-999.0,-99.9,30.24,North,-999,-999.0,-999.0,-999,-99.99,,,0.01,weatherlink.com 1.10,2013-02-07 02:20:00,
2013-02-06 21:35:00,-999.0,-99.9,30.24,North,-999,-999.0,-999.0,-999,-99.99,,,0.01,weatherlink.com 1.10,2013-02-07 02:35:00,
2013-02-06 21:50:00,-999.0,-99.9,30.24,North,-999,-999.0,-999.0,-999,-99.99,,,0.01,weatherlink.com 1.10,2013-02-07 02:50:00,
2013-02-06 22:06:00,-999.0,-99.9,30.24,North,-999,-999.0,-999.0,-999,-99.99,,,0.01,weatherlink.com 1.10,2013-02-07 03:06:00,
2013-02-06 22:21:00,-999.0,-99.9,30.24,North,-999,-999.0,-999.0,-999,-99.99,,,0.01,weatherlink.com 1.10,2013-02-07 03:21:00,
2013-02-06 22:36:00,-999.0,-99.9,30.24,North,-999,-999.0,-999.0,-999,-99.99,,,0.01,weatherlink.com 1.10,2013-02-07 03:36:00,
2013-02-06 22:51:00,-999.0,-99.9,30.24,North,-999,-999.0,-999.0,-999,-99.99,,,0.01,weatherlink.com 1.10,2013-02-07 03:51:00,
2013-02-06 23:06:00,-999.0,-99.9,30.24,North,-999,-999.0,-999.0,-999,-99.99,,,0.01,weatherlink.com 1.10,2013-02-07 04:06:00,
2013-02-06 23:21:00,-999.0,-99.9,30.23,North,-999,-999.0,-999.0,-999,-99.99,,,0.01,weatherlink.com 1.10,2013-02-07 04:21:00,
2013-02-06 23:36:00,-999.0,-99.9,30.23,North,-999,-999.0,-999.0,-999,-99.99,,,0.01,weatherlink.com 1.10,2013-02-07 04:36:00,
2013-02-06 23:51:00,-999.0,-99.9,30.23,North,-999,-999.0,-999.0,-999,-99.99,,,0.01,weatherlink.com 1.10,2013-02-07 04:51:00,